sensor_id;sensor_type;location;lat;lon;timestamp;P1;durP1;ratioP1;P2;durP2;ratioP2
32319;SDS011;19080;51.750;5.888;2023-07-13T00:00:47;4.55;;;1.90;;
32319;SDS011;19080;51.750;5.888;2023-07-13T00:03:14;5.75;;;1.88;;
32319;SDS011;19080;51.750;5.888;2023-07-13T00:05:41;5.15;;;1.52;;
32319;SDS011;19080;51.750;5.888;2023-07-13T00:08:08;5.15;;;1.77;;
32319;SDS011;19080;51.750;5.888;2023-07-13T00:10:38;4.28;;;1.83;;
32319;SDS011;19080;51.750;5.888;2023-07-13T00:13:07;7.15;;;1.83;;
32319;SDS011;19080;51.750;5.888;2023-07-13T00:15:34;5.97;;;1.77;;
32319;SDS011;19080;51.750;5.888;2023-07-13T00:18:02;3.63;;;1.52;;
32319;SDS011;19080;51.750;5.888;2023-07-13T00:20:29;5.25;;;2.38;;
32319;SDS011;19080;51.750;5.888;2023-07-13T00:22:55;6.10;;;1.92;;
32319;SDS011;19080;51.750;5.888;2023-07-13T00:25:23;4.90;;;1.95;;
32319;SDS011;19080;51.750;5.888;2023-07-13T00:27:54;5.60;;;2.08;;
32319;SDS011;19080;51.750;5.888;2023-07-13T00:30:21;5.65;;;1.83;;
32319;SDS011;19080;51.750;5.888;2023-07-13T00:32:49;6.22;;;2.33;;
32319;SDS011;19080;51.750;5.888;2023-07-13T00:35:26;7.65;;;2.47;;
32319;SDS011;19080;51.750;5.888;2023-07-13T00:37:56;5.88;;;2.33;;
32319;SDS011;19080;51.750;5.888;2023-07-13T00:40:23;6.60;;;2.35;;
32319;SDS011;19080;51.750;5.888;2023-07-13T00:42:52;7.03;;;2.80;;
32319;SDS011;19080;51.750;5.888;2023-07-13T00:47:46;4.43;;;2.28;;
32319;SDS011;19080;51.750;5.888;2023-07-13T00:50:14;5.22;;;2.20;;
32319;SDS011;19080;51.750;5.888;2023-07-13T00:52:43;7.65;;;2.47;;
32319;SDS011;19080;51.750;5.888;2023-07-13T00:55:14;5.20;;;2.60;;
32319;SDS011;19080;51.750;5.888;2023-07-13T00:57:43;5.13;;;2.30;;
32319;SDS011;19080;51.750;5.888;2023-07-13T01:00:11;7.82;;;3.22;;
32319;SDS011;19080;51.750;5.888;2023-07-13T01:02:40;5.05;;;2.38;;
32319;SDS011;19080;51.750;5.888;2023-07-13T01:05:13;7.27;;;2.80;;
32319;SDS011;19080;51.750;5.888;2023-07-13T01:07:44;7.50;;;2.63;;
32319;SDS011;19080;51.750;5.888;2023-07-13T01:10:12;3.70;;;2.03;;
32319;SDS011;19080;51.750;5.888;2023-07-13T01:12:39;6.32;;;2.38;;
32319;SDS011;19080;51.750;5.888;2023-07-13T01:18:12;5.43;;;2.17;;
32319;SDS011;19080;51.750;5.888;2023-07-13T01:20:49;5.30;;;2.58;;
32319;SDS011;19080;51.750;5.888;2023-07-13T01:23:23;6.85;;;2.47;;
32319;SDS011;19080;51.750;5.888;2023-07-13T01:25:51;8.45;;;2.70;;
32319;SDS011;19080;51.750;5.888;2023-07-13T01:28:19;5.90;;;2.40;;
32319;SDS011;19080;51.750;5.888;2023-07-13T01:30:46;12.23;;;3.30;;
32319;SDS011;19080;51.750;5.888;2023-07-13T01:33:14;7.60;;;2.40;;
32319;SDS011;19080;51.750;5.888;2023-07-13T01:35:43;8.52;;;2.55;;
32319;SDS011;19080;51.750;5.888;2023-07-13T01:38:11;6.20;;;2.30;;
32319;SDS011;19080;51.750;5.888;2023-07-13T01:40:40;6.47;;;2.33;;
32319;SDS011;19080;51.750;5.888;2023-07-13T01:43:08;4.65;;;2.28;;
32319;SDS011;19080;51.750;5.888;2023-07-13T01:45:34;8.57;;;2.67;;
32319;SDS011;19080;51.750;5.888;2023-07-13T01:48:02;8.23;;;2.50;;
32319;SDS011;19080;51.750;5.888;2023-07-13T01:50:28;5.45;;;2.30;;
32319;SDS011;19080;51.750;5.888;2023-07-13T01:52:55;9.85;;;2.88;;
32319;SDS011;19080;51.750;5.888;2023-07-13T01:55:22;4.80;;;2.13;;
32319;SDS011;19080;51.750;5.888;2023-07-13T01:57:49;6.45;;;2.90;;
32319;SDS011;19080;51.750;5.888;2023-07-13T02:00:16;5.15;;;2.40;;
32319;SDS011;19080;51.750;5.888;2023-07-13T02:02:48;5.93;;;2.70;;
32319;SDS011;19080;51.750;5.888;2023-07-13T02:05:15;5.63;;;2.20;;
32319;SDS011;19080;51.750;5.888;2023-07-13T02:07:42;6.05;;;3.10;;
32319;SDS011;19080;51.750;5.888;2023-07-13T02:10:10;5.97;;;2.70;;
32319;SDS011;19080;51.750;5.888;2023-07-13T02:12:38;4.63;;;2.20;;
32319;SDS011;19080;51.750;5.888;2023-07-13T02:15:06;5.50;;;2.83;;
32319;SDS011;19080;51.750;5.888;2023-07-13T02:17:34;7.00;;;2.35;;
32319;SDS011;19080;51.750;5.888;2023-07-13T02:20:02;6.05;;;2.25;;
32319;SDS011;19080;51.750;5.888;2023-07-13T02:22:31;5.47;;;2.05;;
32319;SDS011;19080;51.750;5.888;2023-07-13T02:24:58;5.45;;;2.40;;
32319;SDS011;19080;51.750;5.888;2023-07-13T02:27:25;8.48;;;2.80;;
32319;SDS011;19080;51.750;5.888;2023-07-13T02:29:52;5.45;;;2.55;;
32319;SDS011;19080;51.750;5.888;2023-07-13T02:32:20;10.95;;;2.97;;
32319;SDS011;19080;51.750;5.888;2023-07-13T02:34:47;6.18;;;3.28;;
32319;SDS011;19080;51.750;5.888;2023-07-13T02:37:14;4.18;;;2.28;;
32319;SDS011;19080;51.750;5.888;2023-07-13T02:39:40;6.40;;;2.95;;
32319;SDS011;19080;51.750;5.888;2023-07-13T02:42:07;9.48;;;3.15;;
32319;SDS011;19080;51.750;5.888;2023-07-13T02:44:34;4.03;;;2.40;;
32319;SDS011;19080;51.750;5.888;2023-07-13T02:47:01;8.27;;;3.40;;
32319;SDS011;19080;51.750;5.888;2023-07-13T02:49:28;5.28;;;2.83;;
32319;SDS011;19080;51.750;5.888;2023-07-13T02:51:55;9.18;;;3.30;;
32319;SDS011;19080;51.750;5.888;2023-07-13T02:54:22;5.63;;;2.45;;
32319;SDS011;19080;51.750;5.888;2023-07-13T02:56:48;6.80;;;2.65;;
32319;SDS011;19080;51.750;5.888;2023-07-13T02:59:16;7.05;;;2.90;;
32319;SDS011;19080;51.750;5.888;2023-07-13T03:01:42;7.75;;;3.53;;
32319;SDS011;19080;51.750;5.888;2023-07-13T03:04:10;4.55;;;2.55;;
32319;SDS011;19080;51.750;5.888;2023-07-13T03:06:37;7.97;;;3.00;;
32319;SDS011;19080;51.750;5.888;2023-07-13T03:09:04;8.02;;;2.85;;
32319;SDS011;19080;51.750;5.888;2023-07-13T03:11:33;6.60;;;2.83;;
32319;SDS011;19080;51.750;5.888;2023-07-13T03:14:10;8.48;;;2.63;;
32319;SDS011;19080;51.750;5.888;2023-07-13T03:16:38;8.07;;;2.92;;
32319;SDS011;19080;51.750;5.888;2023-07-13T03:19:05;10.40;;;3.17;;
32319;SDS011;19080;51.750;5.888;2023-07-13T03:21:32;8.50;;;3.00;;
32319;SDS011;19080;51.750;5.888;2023-07-13T03:23:58;9.55;;;3.15;;
32319;SDS011;19080;51.750;5.888;2023-07-13T03:26:25;5.18;;;2.50;;
32319;SDS011;19080;51.750;5.888;2023-07-13T03:28:52;6.63;;;2.92;;
32319;SDS011;19080;51.750;5.888;2023-07-13T03:31:26;7.93;;;2.92;;
32319;SDS011;19080;51.750;5.888;2023-07-13T03:33:58;6.90;;;2.75;;
32319;SDS011;19080;51.750;5.888;2023-07-13T03:36:29;6.50;;;2.70;;
32319;SDS011;19080;51.750;5.888;2023-07-13T03:39:01;7.35;;;2.60;;
32319;SDS011;19080;51.750;5.888;2023-07-13T03:41:40;11.98;;;3.40;;
32319;SDS011;19080;51.750;5.888;2023-07-13T03:44:06;6.10;;;2.80;;
32319;SDS011;19080;51.750;5.888;2023-07-13T03:46:33;6.63;;;2.70;;
32319;SDS011;19080;51.750;5.888;2023-07-13T03:49:01;6.60;;;2.88;;
32319;SDS011;19080;51.750;5.888;2023-07-13T03:51:28;8.40;;;3.05;;
32319;SDS011;19080;51.750;5.888;2023-07-13T03:53:55;6.68;;;2.78;;
32319;SDS011;19080;51.750;5.888;2023-07-13T03:56:22;7.00;;;2.95;;
32319;SDS011;19080;51.750;5.888;2023-07-13T03:58:49;7.40;;;3.30;;
32319;SDS011;19080;51.750;5.888;2023-07-13T04:01:19;8.13;;;3.50;;
32319;SDS011;19080;51.750;5.888;2023-07-13T04:03:47;7.53;;;3.10;;
32319;SDS011;19080;51.750;5.888;2023-07-13T04:06:16;7.07;;;3.58;;
32319;SDS011;19080;51.750;5.888;2023-07-13T04:08:52;12.32;;;3.22;;
32319;SDS011;19080;51.750;5.888;2023-07-13T04:11:22;6.32;;;2.83;;
32319;SDS011;19080;51.750;5.888;2023-07-13T04:13:51;7.85;;;3.30;;
32319;SDS011;19080;51.750;5.888;2023-07-13T04:16:19;5.22;;;2.75;;
32319;SDS011;19080;51.750;5.888;2023-07-13T04:18:46;6.65;;;3.28;;
32319;SDS011;19080;51.750;5.888;2023-07-13T04:21:14;9.82;;;4.20;;
32319;SDS011;19080;51.750;5.888;2023-07-13T04:23:42;6.60;;;2.97;;
32319;SDS011;19080;51.750;5.888;2023-07-13T04:26:09;7.88;;;3.88;;
32319;SDS011;19080;51.750;5.888;2023-07-13T04:28:36;7.35;;;3.63;;
32319;SDS011;19080;51.750;5.888;2023-07-13T04:31:03;3.95;;;2.55;;
32319;SDS011;19080;51.750;5.888;2023-07-13T04:33:29;12.50;;;3.80;;
32319;SDS011;19080;51.750;5.888;2023-07-13T04:35:56;7.45;;;3.20;;
32319;SDS011;19080;51.750;5.888;2023-07-13T04:38:24;8.10;;;3.78;;
32319;SDS011;19080;51.750;5.888;2023-07-13T04:40:55;10.90;;;3.90;;
32319;SDS011;19080;51.750;5.888;2023-07-13T04:43:25;8.02;;;3.65;;
32319;SDS011;19080;51.750;5.888;2023-07-13T04:45:53;7.35;;;3.38;;
32319;SDS011;19080;51.750;5.888;2023-07-13T04:48:21;9.80;;;4.28;;
32319;SDS011;19080;51.750;5.888;2023-07-13T04:50:47;12.48;;;5.03;;
32319;SDS011;19080;51.750;5.888;2023-07-13T04:55:48;11.07;;;4.38;;
32319;SDS011;19080;51.750;5.888;2023-07-13T04:58:14;11.45;;;4.40;;
32319;SDS011;19080;51.750;5.888;2023-07-13T05:00:41;11.02;;;4.22;;
32319;SDS011;19080;51.750;5.888;2023-07-13T05:03:08;10.32;;;4.20;;
32319;SDS011;19080;51.750;5.888;2023-07-13T05:05:35;16.73;;;5.47;;
32319;SDS011;19080;51.750;5.888;2023-07-13T05:08:01;12.85;;;5.00;;
32319;SDS011;19080;51.750;5.888;2023-07-13T05:10:28;9.10;;;4.20;;
32319;SDS011;19080;51.750;5.888;2023-07-13T05:12:55;10.23;;;4.35;;
32319;SDS011;19080;51.750;5.888;2023-07-13T05:15:22;8.63;;;4.35;;
32319;SDS011;19080;51.750;5.888;2023-07-13T05:17:49;18.23;;;5.18;;
32319;SDS011;19080;51.750;5.888;2023-07-13T05:20:16;12.45;;;4.93;;
32319;SDS011;19080;51.750;5.888;2023-07-13T05:22:44;17.70;;;5.25;;
32319;SDS011;19080;51.750;5.888;2023-07-13T05:25:13;15.80;;;5.35;;
32319;SDS011;19080;51.750;5.888;2023-07-13T05:27:40;15.20;;;4.68;;
32319;SDS011;19080;51.750;5.888;2023-07-13T05:30:07;17.55;;;5.75;;
32319;SDS011;19080;51.750;5.888;2023-07-13T05:32:37;18.55;;;6.75;;
32319;SDS011;19080;51.750;5.888;2023-07-13T05:35:04;14.90;;;7.45;;
32319;SDS011;19080;51.750;5.888;2023-07-13T05:37:31;22.20;;;9.25;;
32319;SDS011;19080;51.750;5.888;2023-07-13T05:39:57;28.95;;;10.30;;
32319;SDS011;19080;51.750;5.888;2023-07-13T05:42:24;20.30;;;9.70;;
32319;SDS011;19080;51.750;5.888;2023-07-13T05:44:50;26.92;;;10.50;;
32319;SDS011;19080;51.750;5.888;2023-07-13T05:47:17;26.35;;;11.70;;
32319;SDS011;19080;51.750;5.888;2023-07-13T05:49:44;28.73;;;10.88;;
32319;SDS011;19080;51.750;5.888;2023-07-13T05:52:10;26.20;;;11.40;;
32319;SDS011;19080;51.750;5.888;2023-07-13T05:54:37;30.27;;;12.23;;
32319;SDS011;19080;51.750;5.888;2023-07-13T05:57:04;35.20;;;14.50;;
32319;SDS011;19080;51.750;5.888;2023-07-13T05:59:31;30.17;;;12.70;;
32319;SDS011;19080;51.750;5.888;2023-07-13T06:01:57;27.45;;;12.57;;
32319;SDS011;19080;51.750;5.888;2023-07-13T06:04:24;27.20;;;13.68;;
32319;SDS011;19080;51.750;5.888;2023-07-13T06:06:51;31.20;;;13.55;;
32319;SDS011;19080;51.750;5.888;2023-07-13T06:09:17;36.42;;;15.25;;
32319;SDS011;19080;51.750;5.888;2023-07-13T06:11:44;31.77;;;14.27;;
32319;SDS011;19080;51.750;5.888;2023-07-13T06:14:11;24.73;;;13.52;;
32319;SDS011;19080;51.750;5.888;2023-07-13T06:16:39;26.25;;;12.95;;
32319;SDS011;19080;51.750;5.888;2023-07-13T06:19:06;34.42;;;15.38;;
32319;SDS011;19080;51.750;5.888;2023-07-13T06:21:33;28.33;;;14.15;;
32319;SDS011;19080;51.750;5.888;2023-07-13T06:23:59;27.77;;;13.60;;
32319;SDS011;19080;51.750;5.888;2023-07-13T06:26:26;28.05;;;13.35;;
32319;SDS011;19080;51.750;5.888;2023-07-13T06:28:53;27.25;;;15.18;;
32319;SDS011;19080;51.750;5.888;2023-07-13T06:31:19;24.10;;;13.93;;
32319;SDS011;19080;51.750;5.888;2023-07-13T06:33:46;29.40;;;15.30;;
32319;SDS011;19080;51.750;5.888;2023-07-13T06:36:12;29.40;;;13.88;;
32319;SDS011;19080;51.750;5.888;2023-07-13T06:38:39;29.30;;;15.68;;
32319;SDS011;19080;51.750;5.888;2023-07-13T06:41:06;26.02;;;15.55;;
32319;SDS011;19080;51.750;5.888;2023-07-13T06:43:34;30.00;;;14.30;;
32319;SDS011;19080;51.750;5.888;2023-07-13T06:46:01;25.95;;;14.30;;
32319;SDS011;19080;51.750;5.888;2023-07-13T06:48:28;24.30;;;13.85;;
32319;SDS011;19080;51.750;5.888;2023-07-13T06:50:55;23.90;;;13.80;;
32319;SDS011;19080;51.750;5.888;2023-07-13T06:53:22;25.38;;;13.48;;
32319;SDS011;19080;51.750;5.888;2023-07-13T06:55:49;22.23;;;12.30;;
32319;SDS011;19080;51.750;5.888;2023-07-13T06:58:16;21.83;;;12.93;;
32319;SDS011;19080;51.750;5.888;2023-07-13T07:00:44;24.42;;;12.77;;
32319;SDS011;19080;51.750;5.888;2023-07-13T07:03:12;23.23;;;13.40;;
32319;SDS011;19080;51.750;5.888;2023-07-13T07:05:39;26.67;;;13.88;;
32319;SDS011;19080;51.750;5.888;2023-07-13T07:08:06;24.98;;;12.65;;
32319;SDS011;19080;51.750;5.888;2023-07-13T07:10:33;27.88;;;14.50;;
32319;SDS011;19080;51.750;5.888;2023-07-13T07:13:00;25.13;;;12.88;;
32319;SDS011;19080;51.750;5.888;2023-07-13T07:15:27;20.02;;;10.80;;
32319;SDS011;19080;51.750;5.888;2023-07-13T07:17:54;26.95;;;13.88;;
32319;SDS011;19080;51.750;5.888;2023-07-13T07:20:21;23.90;;;12.63;;
32319;SDS011;19080;51.750;5.888;2023-07-13T07:22:48;26.00;;;12.30;;
32319;SDS011;19080;51.750;5.888;2023-07-13T07:25:15;22.75;;;12.52;;
32319;SDS011;19080;51.750;5.888;2023-07-13T07:27:42;24.70;;;12.70;;
32319;SDS011;19080;51.750;5.888;2023-07-13T07:30:12;26.00;;;12.30;;
32319;SDS011;19080;51.750;5.888;2023-07-13T07:32:42;26.63;;;12.57;;
32319;SDS011;19080;51.750;5.888;2023-07-13T07:35:22;24.30;;;12.88;;
32319;SDS011;19080;51.750;5.888;2023-07-13T07:37:49;25.05;;;12.82;;
32319;SDS011;19080;51.750;5.888;2023-07-13T07:40:17;23.65;;;11.95;;
32319;SDS011;19080;51.750;5.888;2023-07-13T07:42:47;23.45;;;11.43;;
32319;SDS011;19080;51.750;5.888;2023-07-13T07:45:14;25.48;;;12.35;;
32319;SDS011;19080;51.750;5.888;2023-07-13T07:47:40;20.95;;;11.68;;
32319;SDS011;19080;51.750;5.888;2023-07-13T07:50:08;21.35;;;11.15;;
32319;SDS011;19080;51.750;5.888;2023-07-13T07:52:35;21.65;;;11.70;;
32319;SDS011;19080;51.750;5.888;2023-07-13T07:55:03;19.58;;;10.50;;
32319;SDS011;19080;51.750;5.888;2023-07-13T07:57:33;21.83;;;11.65;;
32319;SDS011;19080;51.750;5.888;2023-07-13T08:00:20;24.60;;;10.90;;
32319;SDS011;19080;51.750;5.888;2023-07-13T08:02:50;23.15;;;10.80;;
32319;SDS011;19080;51.750;5.888;2023-07-13T08:05:19;22.90;;;10.40;;
32319;SDS011;19080;51.750;5.888;2023-07-13T08:08:04;23.00;;;10.85;;
32319;SDS011;19080;51.750;5.888;2023-07-13T08:10:31;15.88;;;9.00;;
32319;SDS011;19080;51.750;5.888;2023-07-13T08:12:57;24.65;;;10.95;;
32319;SDS011;19080;51.750;5.888;2023-07-13T08:15:27;19.23;;;9.75;;
32319;SDS011;19080;51.750;5.888;2023-07-13T08:17:54;21.20;;;10.43;;
32319;SDS011;19080;51.750;5.888;2023-07-13T08:20:23;16.73;;;8.75;;
32319;SDS011;19080;51.750;5.888;2023-07-13T08:22:50;19.33;;;10.02;;
32319;SDS011;19080;51.750;5.888;2023-07-13T08:25:16;17.60;;;9.55;;
32319;SDS011;19080;51.750;5.888;2023-07-13T08:27:43;19.30;;;10.20;;
32319;SDS011;19080;51.750;5.888;2023-07-13T08:30:10;19.88;;;9.95;;
32319;SDS011;19080;51.750;5.888;2023-07-13T08:32:36;16.75;;;8.15;;
32319;SDS011;19080;51.750;5.888;2023-07-13T08:35:04;22.25;;;10.40;;
32319;SDS011;19080;51.750;5.888;2023-07-13T08:37:31;19.75;;;9.98;;
32319;SDS011;19080;51.750;5.888;2023-07-13T08:39:58;15.30;;;7.85;;
32319;SDS011;19080;51.750;5.888;2023-07-13T08:45:20;19.60;;;9.65;;
32319;SDS011;19080;51.750;5.888;2023-07-13T08:48:04;15.27;;;8.30;;
32319;SDS011;19080;51.750;5.888;2023-07-13T08:50:40;18.02;;;8.15;;
32319;SDS011;19080;51.750;5.888;2023-07-13T08:53:42;18.77;;;8.23;;
32319;SDS011;19080;51.750;5.888;2023-07-13T08:56:17;15.80;;;8.60;;
32319;SDS011;19080;51.750;5.888;2023-07-13T08:58:47;17.85;;;7.93;;
32319;SDS011;19080;51.750;5.888;2023-07-13T09:01:21;19.63;;;8.73;;
32319;SDS011;19080;51.750;5.888;2023-07-13T09:04:04;14.82;;;6.70;;
32319;SDS011;19080;51.750;5.888;2023-07-13T09:14:47;10.75;;;5.78;;
32319;SDS011;19080;51.750;5.888;2023-07-13T09:17:18;14.25;;;5.53;;
32319;SDS011;19080;51.750;5.888;2023-07-13T09:19:48;11.20;;;5.15;;
32319;SDS011;19080;51.750;5.888;2023-07-13T09:22:24;11.45;;;5.05;;
32319;SDS011;19080;51.750;5.888;2023-07-13T09:24:55;8.88;;;4.93;;
32319;SDS011;19080;51.750;5.888;2023-07-13T09:27:30;16.58;;;5.97;;
32319;SDS011;19080;51.750;5.888;2023-07-13T09:32:41;9.55;;;4.15;;
32319;SDS011;19080;51.750;5.888;2023-07-13T09:35:12;10.02;;;4.45;;
32319;SDS011;19080;51.750;5.888;2023-07-13T09:37:42;10.20;;;3.90;;
32319;SDS011;19080;51.750;5.888;2023-07-13T09:40:13;9.50;;;4.57;;
32319;SDS011;19080;51.750;5.888;2023-07-13T09:42:49;7.75;;;4.25;;
32319;SDS011;19080;51.750;5.888;2023-07-13T09:45:17;10.40;;;4.70;;
32319;SDS011;19080;51.750;5.888;2023-07-13T09:48:03;7.97;;;4.03;;
32319;SDS011;19080;51.750;5.888;2023-07-13T09:50:42;8.90;;;3.40;;
32319;SDS011;19080;51.750;5.888;2023-07-13T09:53:13;8.35;;;4.03;;
32319;SDS011;19080;51.750;5.888;2023-07-13T09:58:23;9.30;;;3.90;;
32319;SDS011;19080;51.750;5.888;2023-07-13T10:00:53;7.07;;;4.28;;
32319;SDS011;19080;51.750;5.888;2023-07-13T10:03:32;12.20;;;4.45;;
32319;SDS011;19080;51.750;5.888;2023-07-13T10:06:38;10.02;;;3.90;;
32319;SDS011;19080;51.750;5.888;2023-07-13T10:08:57;10.27;;;4.43;;
32319;SDS011;19080;51.750;5.888;2023-07-13T10:11:29;10.82;;;4.25;;
32319;SDS011;19080;51.750;5.888;2023-07-13T10:16:27;9.75;;;3.97;;
32319;SDS011;19080;51.750;5.888;2023-07-13T10:21:55;10.90;;;3.78;;
32319;SDS011;19080;51.750;5.888;2023-07-13T10:24:26;9.77;;;4.57;;
32319;SDS011;19080;51.750;5.888;2023-07-13T10:27:09;8.70;;;3.67;;
32319;SDS011;19080;51.750;5.888;2023-07-13T10:29:58;8.73;;;4.72;;
32319;SDS011;19080;51.750;5.888;2023-07-13T10:32:26;9.75;;;4.50;;
32319;SDS011;19080;51.750;5.888;2023-07-13T10:34:53;9.27;;;4.13;;
32319;SDS011;19080;51.750;5.888;2023-07-13T10:37:23;10.95;;;4.45;;
32319;SDS011;19080;51.750;5.888;2023-07-13T10:39:54;8.80;;;4.45;;
32319;SDS011;19080;51.750;5.888;2023-07-13T10:45:22;11.23;;;5.28;;
32319;SDS011;19080;51.750;5.888;2023-07-13T10:47:50;9.48;;;5.45;;
32319;SDS011;19080;51.750;5.888;2023-07-13T10:50:23;7.30;;;5.23;;
32319;SDS011;19080;51.750;5.888;2023-07-13T10:52:55;8.82;;;4.43;;
32319;SDS011;19080;51.750;5.888;2023-07-13T10:58:13;11.27;;;4.47;;
32319;SDS011;19080;51.750;5.888;2023-07-13T11:03:30;10.35;;;7.15;;
32319;SDS011;19080;51.750;5.888;2023-07-13T11:06:07;19.50;;;10.93;;
32319;SDS011;19080;51.750;5.888;2023-07-13T11:08:38;20.10;;;11.88;;
32319;SDS011;19080;51.750;5.888;2023-07-13T11:21:32;16.85;;;9.40;;
32319;SDS011;19080;51.750;5.888;2023-07-13T11:24:03;14.85;;;9.55;;
32319;SDS011;19080;51.750;5.888;2023-07-13T11:26:39;11.43;;;9.10;;
32319;SDS011;19080;51.750;5.888;2023-07-13T11:31:59;8.10;;;5.30;;
32319;SDS011;19080;51.750;5.888;2023-07-13T11:34:34;10.70;;;5.90;;
32319;SDS011;19080;51.750;5.888;2023-07-13T11:37:08;4.97;;;4.05;;
32319;SDS011;19080;51.750;5.888;2023-07-13T11:39:42;6.40;;;4.05;;
32319;SDS011;19080;51.750;5.888;2023-07-13T11:42:14;4.07;;;2.47;;
32319;SDS011;19080;51.750;5.888;2023-07-13T11:44:45;6.28;;;3.75;;
32319;SDS011;19080;51.750;5.888;2023-07-13T11:47:34;7.65;;;4.10;;
32319;SDS011;19080;51.750;5.888;2023-07-13T11:50:16;6.20;;;3.33;;
32319;SDS011;19080;51.750;5.888;2023-07-13T11:52:45;6.60;;;4.35;;
32319;SDS011;19080;51.750;5.888;2023-07-13T11:55:16;7.40;;;4.28;;
32319;SDS011;19080;51.750;5.888;2023-07-13T11:57:51;8.48;;;4.78;;
32319;SDS011;19080;51.750;5.888;2023-07-13T12:00:25;9.15;;;4.68;;
32319;SDS011;19080;51.750;5.888;2023-07-13T12:02:55;7.10;;;4.55;;
32319;SDS011;19080;51.750;5.888;2023-07-13T12:05:23;5.55;;;4.22;;
32319;SDS011;19080;51.750;5.888;2023-07-13T12:07:51;7.78;;;4.15;;
32319;SDS011;19080;51.750;5.888;2023-07-13T12:10:22;7.40;;;4.90;;
32319;SDS011;19080;51.750;5.888;2023-07-13T12:12:58;7.28;;;4.30;;
32319;SDS011;19080;51.750;5.888;2023-07-13T12:15:34;6.88;;;3.75;;
32319;SDS011;19080;51.750;5.888;2023-07-13T12:18:15;5.10;;;4.30;;
32319;SDS011;19080;51.750;5.888;2023-07-13T12:20:46;5.95;;;3.88;;
32319;SDS011;19080;51.750;5.888;2023-07-13T12:23:21;5.32;;;3.10;;
32319;SDS011;19080;51.750;5.888;2023-07-13T12:25:51;4.93;;;4.05;;
32319;SDS011;19080;51.750;5.888;2023-07-13T12:28:20;5.25;;;3.40;;
32319;SDS011;19080;51.750;5.888;2023-07-13T12:30:48;5.13;;;3.67;;
32319;SDS011;19080;51.750;5.888;2023-07-13T12:33:15;6.10;;;2.80;;
32319;SDS011;19080;51.750;5.888;2023-07-13T12:35:45;5.45;;;2.92;;
32319;SDS011;19080;51.750;5.888;2023-07-13T12:38:14;7.25;;;2.97;;
32319;SDS011;19080;51.750;5.888;2023-07-13T12:40:42;4.00;;;2.33;;
32319;SDS011;19080;51.750;5.888;2023-07-13T12:43:13;5.40;;;2.75;;
32319;SDS011;19080;51.750;5.888;2023-07-13T12:46:01;6.88;;;3.00;;
32319;SDS011;19080;51.750;5.888;2023-07-13T12:48:29;5.63;;;2.85;;
32319;SDS011;19080;51.750;5.888;2023-07-13T12:51:13;5.85;;;2.63;;
32319;SDS011;19080;51.750;5.888;2023-07-13T12:53:41;5.47;;;3.42;;
32319;SDS011;19080;51.750;5.888;2023-07-13T12:56:20;6.13;;;2.85;;
32319;SDS011;19080;51.750;5.888;2023-07-13T12:58:55;7.57;;;3.50;;
32319;SDS011;19080;51.750;5.888;2023-07-13T13:01:28;6.82;;;3.20;;
32319;SDS011;19080;51.750;5.888;2023-07-13T13:04:00;6.57;;;3.22;;
32319;SDS011;19080;51.750;5.888;2023-07-13T13:06:33;5.85;;;3.30;;
32319;SDS011;19080;51.750;5.888;2023-07-13T13:09:02;7.07;;;3.25;;
32319;SDS011;19080;51.750;5.888;2023-07-13T13:11:30;5.68;;;3.20;;
32319;SDS011;19080;51.750;5.888;2023-07-13T13:13:58;8.70;;;3.55;;
32319;SDS011;19080;51.750;5.888;2023-07-13T13:18:55;6.47;;;3.58;;
32319;SDS011;19080;51.750;5.888;2023-07-13T13:21:23;7.13;;;3.88;;
32319;SDS011;19080;51.750;5.888;2023-07-13T13:23:52;7.82;;;3.60;;
32319;SDS011;19080;51.750;5.888;2023-07-13T13:26:21;8.27;;;4.03;;
32319;SDS011;19080;51.750;5.888;2023-07-13T13:28:48;7.72;;;3.80;;
32319;SDS011;19080;51.750;5.888;2023-07-13T13:31:15;6.57;;;3.60;;
32319;SDS011;19080;51.750;5.888;2023-07-13T13:33:43;6.63;;;3.65;;
32319;SDS011;19080;51.750;5.888;2023-07-13T13:36:16;8.40;;;4.07;;
32319;SDS011;19080;51.750;5.888;2023-07-13T13:41:11;5.88;;;3.50;;
32319;SDS011;19080;51.750;5.888;2023-07-13T13:43:40;6.45;;;3.53;;
32319;SDS011;19080;51.750;5.888;2023-07-13T13:46:13;5.50;;;3.40;;
32319;SDS011;19080;51.750;5.888;2023-07-13T13:48:42;7.47;;;3.20;;
32319;SDS011;19080;51.750;5.888;2023-07-13T13:51:14;8.00;;;3.17;;
32319;SDS011;19080;51.750;5.888;2023-07-13T13:53:50;8.35;;;2.92;;
32319;SDS011;19080;51.750;5.888;2023-07-13T13:56:18;4.18;;;2.30;;
32319;SDS011;19080;51.750;5.888;2023-07-13T13:58:46;5.07;;;2.10;;
32319;SDS011;19080;51.750;5.888;2023-07-13T14:01:13;4.05;;;2.20;;
32319;SDS011;19080;51.750;5.888;2023-07-13T14:03:44;3.22;;;2.17;;
32319;SDS011;19080;51.750;5.888;2023-07-13T14:06:11;7.47;;;2.30;;
32319;SDS011;19080;51.750;5.888;2023-07-13T14:08:39;6.93;;;2.53;;
32319;SDS011;19080;51.750;5.888;2023-07-13T14:11:07;4.10;;;2.20;;
32319;SDS011;19080;51.750;5.888;2023-07-13T14:13:41;7.32;;;2.72;;
32319;SDS011;19080;51.750;5.888;2023-07-13T14:16:11;4.72;;;2.33;;
32319;SDS011;19080;51.750;5.888;2023-07-13T14:18:41;7.43;;;2.97;;
32319;SDS011;19080;51.750;5.888;2023-07-13T14:21:12;6.32;;;2.60;;
32319;SDS011;19080;51.750;5.888;2023-07-13T14:23:43;4.20;;;2.35;;
32319;SDS011;19080;51.750;5.888;2023-07-13T14:26:12;6.50;;;2.60;;
32319;SDS011;19080;51.750;5.888;2023-07-13T14:28:48;6.95;;;2.45;;
32319;SDS011;19080;51.750;5.888;2023-07-13T14:31:16;7.60;;;2.83;;
32319;SDS011;19080;51.750;5.888;2023-07-13T14:33:43;7.63;;;2.75;;
32319;SDS011;19080;51.750;5.888;2023-07-13T14:36:56;9.68;;;3.15;;
32319;SDS011;19080;51.750;5.888;2023-07-13T14:39:10;5.65;;;2.35;;
32319;SDS011;19080;51.750;5.888;2023-07-13T14:41:39;5.75;;;2.80;;
32319;SDS011;19080;51.750;5.888;2023-07-13T14:44:16;5.47;;;2.83;;
32319;SDS011;19080;51.750;5.888;2023-07-13T14:46:44;7.45;;;2.90;;
32319;SDS011;19080;51.750;5.888;2023-07-13T14:49:24;11.65;;;2.90;;
32319;SDS011;19080;51.750;5.888;2023-07-13T14:51:56;7.13;;;2.88;;
32319;SDS011;19080;51.750;5.888;2023-07-13T14:54:26;6.13;;;2.55;;
32319;SDS011;19080;51.750;5.888;2023-07-13T14:56:52;5.13;;;2.80;;
32319;SDS011;19080;51.750;5.888;2023-07-13T14:59:19;6.55;;;2.90;;
32319;SDS011;19080;51.750;5.888;2023-07-13T15:01:46;5.80;;;2.58;;
32319;SDS011;19080;51.750;5.888;2023-07-13T15:04:14;5.05;;;2.30;;
32319;SDS011;19080;51.750;5.888;2023-07-13T15:06:52;6.10;;;2.17;;
32319;SDS011;19080;51.750;5.888;2023-07-13T15:09:23;5.88;;;2.45;;
32319;SDS011;19080;51.750;5.888;2023-07-13T15:11:53;5.13;;;2.42;;
32319;SDS011;19080;51.750;5.888;2023-07-13T15:14:21;4.50;;;2.53;;
32319;SDS011;19080;51.750;5.888;2023-07-13T15:16:49;3.47;;;2.38;;
32319;SDS011;19080;51.750;5.888;2023-07-13T15:19:17;4.25;;;2.42;;
32319;SDS011;19080;51.750;5.888;2023-07-13T15:21:45;4.88;;;2.35;;
32319;SDS011;19080;51.750;5.888;2023-07-13T15:24:13;5.53;;;2.38;;
32319;SDS011;19080;51.750;5.888;2023-07-13T15:26:42;4.50;;;1.80;;
32319;SDS011;19080;51.750;5.888;2023-07-13T15:29:15;3.72;;;2.22;;
32319;SDS011;19080;51.750;5.888;2023-07-13T15:31:42;4.07;;;2.00;;
32319;SDS011;19080;51.750;5.888;2023-07-13T15:34:11;7.07;;;2.03;;
32319;SDS011;19080;51.750;5.888;2023-07-13T15:36:39;3.20;;;2.00;;
32319;SDS011;19080;51.750;5.888;2023-07-13T15:39:06;5.25;;;2.53;;
32319;SDS011;19080;51.750;5.888;2023-07-13T15:41:33;5.60;;;2.55;;
32319;SDS011;19080;51.750;5.888;2023-07-13T15:44:00;7.00;;;2.78;;
32319;SDS011;19080;51.750;5.888;2023-07-13T15:46:44;4.82;;;2.03;;
32319;SDS011;19080;51.750;5.888;2023-07-13T15:49:10;4.80;;;2.30;;
32319;SDS011;19080;51.750;5.888;2023-07-13T15:51:37;4.07;;;1.67;;